createdAt,value
2016-02-23T00:00:39.610Z,0
2016-02-23T00:01:39.613Z,0
2016-02-23T00:02:39.616Z,0
2016-02-23T00:03:39.649Z,0
2016-02-23T00:04:39.666Z,0
2016-02-23T00:05:39.678Z,0
2016-02-23T00:06:39.712Z,0
2016-02-23T00:07:39.730Z,0
2016-02-23T00:08:39.718Z,0
2016-02-23T00:09:39.752Z,0
2016-02-23T00:10:39.754Z,0
2016-02-23T00:11:39.805Z,0
2016-02-23T00:12:39.807Z,0
2016-02-23T00:13:39.841Z,0
2016-02-23T00:14:39.827Z,0
2016-02-23T00:15:39.861Z,0
2016-02-23T00:16:39.864Z,0
2016-02-23T00:17:39.882Z,0
2016-02-23T00:18:39.916Z,0
2016-02-23T00:19:39.919Z,0
2016-02-23T00:20:39.938Z,0
2016-02-23T00:21:39.952Z,0
2016-02-23T00:22:39.959Z,0
2016-02-23T00:23:39.966Z,0
2016-02-23T00:24:39.972Z,0
2016-02-23T00:25:39.964Z,0
2016-02-23T00:26:39.990Z,0
2016-02-23T00:27:39.988Z,0
2016-02-23T00:28:40.002Z,0
2016-02-23T00:29:40.033Z,0
2016-02-23T00:30:40.047Z,0
2016-02-23T00:31:40.062Z,0
2016-02-23T00:32:40.063Z,0
2016-02-23T00:33:40.080Z,0
2016-02-23T00:34:40.082Z,0
2016-02-23T00:35:40.115Z,0
2016-02-23T00:36:40.131Z,0
2016-02-23T00:37:40.165Z,0
2016-02-23T00:38:40.167Z,0
2016-02-23T00:39:40.185Z,0
2016-02-23T00:40:40.202Z,0
2016-02-23T00:41:40.204Z,0
2016-02-23T00:42:40.245Z,0
2016-02-23T00:43:40.264Z,0
2016-02-23T00:44:40.266Z,0
2016-02-23T00:45:40.301Z,0
2016-02-23T00:46:40.318Z,0
2016-02-23T00:47:40.320Z,0
2016-02-23T00:48:40.340Z,0
2016-02-23T00:49:40.342Z,0
2016-02-23T00:50:40.360Z,0
2016-02-23T00:51:40.378Z,0
2016-02-23T00:52:40.397Z,0
2016-02-23T00:53:40.431Z,0
2016-02-23T00:54:40.450Z,0
2016-02-23T00:55:40.452Z,0
2016-02-23T00:56:40.470Z,0
2016-02-23T00:57:40.473Z,0
2016-02-23T00:58:40.491Z,0
2016-02-23T00:59:40.525Z,0
2016-02-23T01:00:40.528Z,0
2016-02-23T01:01:40.562Z,0
2016-02-23T01:02:40.565Z,0
2016-02-23T01:03:40.599Z,0
2016-02-23T01:04:40.616Z,0
2016-02-23T01:05:40.619Z,0
2016-02-23T01:06:40.638Z,0
2016-02-23T01:07:40.640Z,0
2016-02-23T01:08:40.659Z,0
2016-02-23T01:09:40.693Z,0
2016-02-23T01:10:40.695Z,0
2016-02-23T01:11:40.715Z,0
2016-02-23T01:12:40.732Z,0
2016-02-23T01:13:40.750Z,0
2016-02-23T01:14:40.768Z,0
2016-02-23T01:15:40.818Z,0
2016-02-23T01:16:40.790Z,0
2016-02-23T01:17:40.808Z,0
2016-02-23T01:18:40.108Z,0
2016-02-23T01:19:40.704Z,0
2016-02-23T01:20:40.895Z,0
2016-02-23T01:21:40.881Z,0
2016-02-23T01:22:40.884Z,0
2016-02-23T01:23:40.917Z,0
2016-02-23T01:24:40.937Z,0
2016-02-23T01:25:40.939Z,0
2016-02-23T01:26:40.972Z,0
2016-02-23T01:27:40.975Z,0
2016-02-23T01:28:40.994Z,0
2016-02-23T01:29:41.044Z,0
2016-02-23T01:30:41.030Z,0
2016-02-23T01:31:41.049Z,0
2016-02-23T01:32:41.067Z,0
2016-02-23T01:33:41.102Z,0
2016-02-23T01:34:41.104Z,0
2016-02-23T01:35:41.121Z,0
2016-02-23T01:36:41.125Z,0
2016-02-23T01:37:41.174Z,0
2016-02-23T01:38:41.162Z,0
2016-02-23T01:39:41.196Z,0
2016-02-23T01:40:41.198Z,0
2016-02-23T01:41:41.216Z,0
2016-02-23T01:42:41.235Z,0
2016-02-23T01:43:41.253Z,0
2016-02-23T01:44:41.256Z,0
2016-02-23T01:45:41.290Z,0
2016-02-23T01:46:41.308Z,0
2016-02-23T01:47:41.342Z,0
2016-02-23T01:48:41.345Z,0
2016-02-23T01:49:41.362Z,0
2016-02-23T01:50:41.365Z,0
2016-02-23T01:51:41.384Z,0
2016-02-23T01:52:41.386Z,0
2016-02-23T01:53:41.436Z,0
2016-02-23T01:54:41.423Z,0
2016-02-23T01:55:41.457Z,0
2016-02-23T01:56:41.461Z,0
2016-02-23T01:57:41.525Z,0
2016-02-23T01:58:41.496Z,0
2016-02-23T01:59:41.515Z,0
2016-02-23T02:00:41.533Z,0
2016-02-23T02:01:41.551Z,0
2016-02-23T02:02:41.569Z,0
2016-02-23T02:03:41.572Z,0
2016-02-23T02:04:41.591Z,0
2016-02-23T02:05:41.610Z,0
2016-02-23T02:06:41.643Z,0
2016-02-23T02:07:41.661Z,0
2016-02-23T02:08:41.680Z,0
2016-02-23T02:09:41.791Z,0
2016-02-23T02:10:41.747Z,0
2016-02-23T02:11:41.719Z,0
2016-02-23T02:12:41.753Z,0
2016-02-23T02:13:41.740Z,0
2016-02-23T02:14:41.759Z,0
2016-02-23T02:15:41.776Z,0
2016-02-23T02:16:41.795Z,0
2016-02-23T02:17:41.813Z,0
2016-02-23T02:18:41.831Z,0
2016-02-23T02:19:41.834Z,0
2016-02-23T02:20:41.868Z,0
2016-02-23T02:21:41.887Z,0
2016-02-23T02:22:41.905Z,0
2016-02-23T02:23:41.923Z,0
2016-02-23T02:24:41.926Z,0
2016-02-23T02:25:41.944Z,0
2016-02-23T02:26:41.962Z,0
2016-02-23T02:27:42.028Z,0
2016-02-23T02:28:41.983Z,0
2016-02-23T02:29:42.017Z,0
2016-02-23T02:30:42.025Z,0
2016-02-23T02:31:42.043Z,0
2016-02-23T02:32:42.061Z,0
2016-02-23T02:33:42.080Z,0
2016-02-23T02:34:42.098Z,0
2016-02-23T02:35:42.116Z,0
2016-02-23T02:36:42.135Z,0
2016-02-23T02:37:42.168Z,0
2016-02-23T02:38:42.172Z,0
2016-02-23T02:39:42.205Z,0
2016-02-23T02:40:42.192Z,0
2016-02-23T02:41:42.227Z,0
2016-02-23T02:42:42.245Z,0
2016-02-23T02:43:42.247Z,0
2016-02-23T02:44:42.265Z,0
2016-02-23T02:45:42.284Z,0
2016-02-23T02:46:42.286Z,0
2016-02-23T02:47:42.337Z,0
2016-02-23T02:48:42.339Z,0
2016-02-23T02:49:42.356Z,0
2016-02-23T02:50:42.360Z,0
2016-02-23T02:51:42.378Z,0
2016-02-23T02:52:42.396Z,0
2016-02-23T02:53:42.415Z,0
2016-02-23T02:54:42.433Z,0
2016-02-23T02:55:42.436Z,0
2016-02-23T02:56:42.470Z,0
2016-02-23T02:57:42.488Z,0
2016-02-23T02:58:42.491Z,0
2016-02-23T02:59:42.525Z,0
2016-02-23T03:00:42.543Z,0
2016-02-23T03:01:42.577Z,0
2016-02-23T03:02:42.564Z,0
2016-02-23T03:03:42.583Z,0
2016-02-23T03:04:42.585Z,0
2016-02-23T03:05:42.604Z,0
2016-02-23T03:06:42.622Z,0
2016-02-23T03:07:42.640Z,0
2016-02-23T03:08:42.674Z,0
2016-02-23T03:09:42.676Z,0
2016-02-23T03:10:42.695Z,0
2016-02-23T03:11:42.712Z,0
2016-02-23T03:12:42.716Z,0
2016-02-23T03:13:42.734Z,0
2016-02-23T03:14:42.753Z,0
2016-02-23T03:15:42.771Z,0
2016-02-23T03:16:42.789Z,0
2016-02-23T03:17:42.807Z,0
2016-02-23T03:18:42.842Z,0
2016-02-23T03:19:42.844Z,0
2016-02-23T03:20:42.847Z,0
2016-02-23T03:21:45.881Z,0
2016-02-23T03:22:42.899Z,0
2016-02-23T03:23:42.918Z,0
2016-02-23T03:24:42.920Z,0
2016-02-23T03:25:42.953Z,0
2016-02-23T03:26:42.973Z,0
2016-02-23T03:27:42.991Z,0
2016-02-23T03:28:42.994Z,0
2016-02-23T03:29:42.996Z,0
2016-02-23T03:30:43.030Z,0
2016-02-23T03:31:43.032Z,0
2016-02-23T03:32:43.052Z,0
2016-02-23T03:33:43.069Z,0
2016-02-23T03:34:43.087Z,0
2016-02-23T03:35:43.091Z,0
2016-02-23T03:36:43.124Z,0
2016-02-23T03:37:43.143Z,0
2016-02-23T03:38:43.160Z,0
2016-02-23T03:39:43.179Z,0
2016-02-23T03:40:43.198Z,0
2016-02-23T03:41:43.201Z,0
2016-02-23T03:42:43.218Z,0
2016-02-23T03:43:43.237Z,0
2016-02-23T03:44:43.098Z,0
2016-02-23T03:45:43.258Z,0
2016-02-23T03:46:43.276Z,0
2016-02-23T03:47:43.294Z,0
2016-02-23T03:48:43.313Z,0
2016-02-23T03:49:43.331Z,0
2016-02-23T03:50:43.350Z,0
2016-02-23T03:51:43.368Z,0
2016-02-23T03:52:43.401Z,0
2016-02-23T03:53:43.404Z,0
2016-02-23T03:54:43.407Z,0
2016-02-23T03:55:43.441Z,0
2016-02-23T03:56:43.458Z,0
2016-02-23T03:57:43.478Z,0
2016-02-23T03:58:43.480Z,0
2016-02-23T03:59:43.514Z,0
2016-02-23T04:00:43.517Z,0
2016-02-23T04:01:43.535Z,0
2016-02-23T04:02:43.538Z,0
2016-02-23T04:03:43.572Z,0
2016-02-23T04:04:43.590Z,0
2016-02-23T04:05:43.624Z,0
2016-02-23T04:06:43.627Z,0
2016-02-23T04:07:43.645Z,0
2016-02-23T04:08:43.648Z,0
2016-02-23T04:09:43.651Z,0
2016-02-23T04:10:43.669Z,0
2016-02-23T04:11:43.687Z,0
2016-02-23T04:12:43.705Z,0
2016-02-23T04:13:43.724Z,0
2016-02-23T04:14:43.742Z,0
2016-02-23T04:15:43.776Z,0
2016-02-23T04:16:43.779Z,0
2016-02-23T04:17:43.797Z,0
2016-02-23T04:18:43.815Z,0
2016-02-23T04:19:43.834Z,0
2016-02-23T04:20:43.836Z,0
2016-02-23T04:21:43.854Z,0
2016-02-23T04:22:43.873Z,0
2016-02-23T04:23:43.891Z,0
2016-02-23T04:24:43.894Z,0
2016-02-23T04:25:43.928Z,0
2016-02-23T04:26:43.946Z,0
2016-02-23T04:27:43.950Z,0
2016-02-23T04:28:43.983Z,0
2016-02-23T04:29:44.000Z,0
2016-02-23T04:30:44.020Z,0
2016-02-23T04:31:44.038Z,0
2016-02-23T04:32:44.025Z,0
2016-02-23T04:33:44.044Z,0
2016-02-23T04:34:44.061Z,0
2016-02-23T04:35:44.096Z,0
2016-02-23T04:36:44.099Z,0
2016-02-23T04:37:44.132Z,0
2016-02-23T04:38:44.134Z,0
2016-02-23T04:39:44.168Z,0
2016-02-23T04:40:44.155Z,0
2016-02-23T04:41:44.190Z,0
2016-02-23T04:42:44.207Z,0
2016-02-23T04:43:44.210Z,0
2016-02-23T04:44:44.213Z,0
2016-02-23T04:45:44.232Z,0
2016-02-23T04:46:44.266Z,0
2016-02-23T04:47:44.268Z,0
2016-02-23T04:48:44.301Z,0
2016-02-23T04:49:44.305Z,0
2016-02-23T04:50:44.354Z,0
2016-02-23T04:51:44.341Z,0
2016-02-23T04:52:44.220Z,0
2016-02-23T04:53:44.378Z,0
2016-02-23T04:54:44.397Z,0
2016-02-23T04:55:44.415Z,0
2016-02-23T04:56:44.448Z,0
2016-02-23T04:57:44.436Z,0
2016-02-23T04:58:44.345Z,0
2016-02-23T04:59:44.472Z,0
2016-02-23T05:00:44.491Z,0
2016-02-23T05:01:44.493Z,0
2016-02-23T05:02:44.512Z,0
2016-02-23T05:03:44.514Z,0
2016-02-23T05:04:44.580Z,0
2016-02-23T05:05:44.566Z,0
2016-02-23T05:06:44.600Z,0
2016-02-23T05:07:44.588Z,0
2016-02-23T05:08:44.638Z,0
2016-02-23T05:09:44.640Z,0
2016-02-23T05:10:44.657Z,0
2016-02-23T05:11:44.677Z,0
2016-02-23T05:12:44.710Z,0
2016-02-23T05:13:44.729Z,0
2016-02-23T05:14:44.716Z,0
2016-02-23T05:15:44.749Z,0
2016-02-23T05:16:44.752Z,0
2016-02-23T05:17:44.771Z,0
2016-02-23T05:18:44.773Z,0
2016-02-23T05:19:44.823Z,0
2016-02-23T05:20:44.810Z,0
2016-02-23T05:21:44.828Z,0
2016-02-23T05:22:44.831Z,0
2016-02-23T05:23:44.881Z,0
2016-02-23T05:24:44.868Z,0
2016-02-23T05:25:44.917Z,0
2016-02-23T05:26:44.904Z,0
2016-02-23T05:27:44.938Z,0
2016-02-23T05:28:44.956Z,0
2016-02-23T05:29:44.944Z,0
2016-02-23T05:30:44.978Z,0
2016-02-23T05:31:44.996Z,0
2016-02-23T05:32:44.999Z,0
2016-02-23T05:33:45.002Z,0
2016-02-23T05:34:45.066Z,0
2016-02-23T05:35:45.053Z,0
2016-02-23T05:36:45.056Z,0
2016-02-23T05:37:45.091Z,0
2016-02-23T05:38:45.093Z,0
2016-02-23T05:39:45.127Z,0
2016-02-23T05:40:45.129Z,0
2016-02-23T05:41:45.149Z,0
2016-02-23T05:42:45.166Z,0
2016-02-23T05:43:45.169Z,0
2016-02-23T05:44:45.218Z,0
2016-02-23T05:45:45.065Z,0
2016-02-23T05:46:45.240Z,0
2016-02-23T05:47:45.242Z,0
2016-02-23T05:48:45.307Z,0
2016-02-23T05:49:45.263Z,0
2016-02-23T05:50:45.312Z,0
2016-02-23T05:51:45.316Z,0
2016-02-23T05:52:45.381Z,4
2016-02-23T05:53:45.336Z,4
2016-02-23T05:54:45.370Z,4
2016-02-23T05:55:45.373Z,0
2016-02-23T05:56:45.391Z,0
2016-02-23T05:57:45.253Z,0
2016-02-23T05:58:45.272Z,0
2016-02-23T05:59:45.430Z,4
2016-02-23T06:00:45.465Z,4
2016-02-23T06:01:45.327Z,4
2016-02-23T06:02:45.500Z,8
2016-02-23T06:03:45.488Z,4
2016-02-23T06:04:45.522Z,4
2016-02-23T06:05:45.541Z,8
2016-02-23T06:06:45.543Z,8
2016-02-23T06:07:45.874Z,8
2016-02-23T06:08:45.580Z,8
2016-02-23T06:09:45.599Z,8
2016-02-23T06:10:48.616Z,12
2016-02-23T06:11:45.650Z,12
2016-02-23T06:12:45.497Z,12
2016-02-23T06:13:45.655Z,12
2016-02-23T06:14:45.674Z,16
2016-02-23T06:15:45.693Z,16
2016-02-23T06:16:45.710Z,16
2016-02-23T06:17:45.730Z,20
2016-02-23T06:18:45.732Z,20
2016-02-23T06:19:45.797Z,24
2016-02-23T06:20:45.753Z,20
2016-02-23T06:21:45.818Z,20
2016-02-23T06:22:45.789Z,28
2016-02-23T06:23:45.839Z,28
2016-02-23T06:24:45.842Z,32
2016-02-23T06:25:45.875Z,32
2016-02-23T06:26:45.863Z,32
2016-02-23T06:27:45.897Z,36
2016-02-23T06:28:45.900Z,40
2016-02-23T06:29:45.902Z,44
2016-02-23T06:30:45.936Z,52
2016-02-23T06:31:45.954Z,60
2016-02-23T06:32:45.956Z,64
2016-02-23T06:33:45.975Z,76
2016-02-23T06:34:45.994Z,76
2016-02-23T06:35:46.028Z,84
2016-02-23T06:36:46.031Z,84
2016-02-23T06:37:46.049Z,92
2016-02-23T06:38:46.082Z,96
2016-02-23T06:39:46.069Z,104
2016-02-23T06:40:46.088Z,100
2016-02-23T06:41:46.091Z,104
2016-02-23T06:42:46.124Z,112
2016-02-23T06:43:46.127Z,120
2016-02-23T06:44:46.161Z,128
2016-02-23T06:45:46.163Z,140
2016-02-23T06:46:46.182Z,140
2016-02-23T06:47:46.201Z,144
2016-02-23T06:48:46.218Z,152
2016-02-23T06:49:46.237Z,156
2016-02-23T06:50:46.255Z,168
2016-02-23T06:51:46.273Z,164
2016-02-23T06:52:46.292Z,172
2016-02-23T06:53:46.295Z,176
2016-02-23T06:54:46.312Z,172
2016-02-23T06:55:46.316Z,156
2016-02-23T06:56:46.350Z,144
2016-02-23T06:57:46.367Z,148
2016-02-23T06:58:46.402Z,176
2016-02-23T06:59:46.404Z,224
2016-02-23T07:00:46.422Z,240
2016-02-23T07:01:46.425Z,244
2016-02-23T07:02:46.444Z,232
2016-02-23T07:03:46.447Z,228
2016-02-23T07:04:46.481Z,236
2016-02-23T07:05:46.499Z,240
2016-02-23T07:06:46.502Z,236
2016-02-23T07:07:46.519Z,224
2016-02-23T07:08:46.539Z,216
2016-02-23T07:09:46.556Z,212
2016-02-23T07:10:46.574Z,204
2016-02-23T07:11:46.593Z,188
2016-02-23T07:12:46.439Z,180
2016-02-23T07:13:46.630Z,192
2016-02-23T07:14:46.632Z,212
2016-02-23T07:15:46.651Z,240
2016-02-23T07:16:46.669Z,252
2016-02-23T07:17:46.687Z,276
2016-02-23T07:18:46.690Z,304
2016-02-23T07:19:46.708Z,328
2016-02-23T07:20:46.726Z,360
2016-02-23T07:21:46.746Z,412
2016-02-23T07:22:46.763Z,452
2016-02-23T07:23:46.781Z,476
2016-02-23T07:24:46.784Z,452
2016-02-23T07:25:46.803Z,404
2016-02-23T07:26:46.820Z,384
2016-02-23T07:27:46.839Z,412
2016-02-23T07:28:46.873Z,448
2016-02-23T07:29:46.892Z,456
2016-02-23T07:30:46.879Z,444
2016-02-23T07:31:46.898Z,444
2016-02-23T07:32:46.915Z,464
2016-02-23T07:33:46.933Z,468
2016-02-23T07:34:46.953Z,472
2016-02-23T07:35:46.986Z,492
2016-02-23T07:36:46.973Z,488
2016-02-23T07:37:47.022Z,480
2016-02-23T07:38:47.025Z,472
2016-02-23T07:39:47.044Z,492
2016-02-23T07:40:47.047Z,532
2016-02-23T07:41:47.064Z,552
2016-02-23T07:42:47.099Z,608
2016-02-23T07:43:47.102Z,648
2016-02-23T07:44:47.104Z,632
2016-02-23T07:45:47.137Z,620
2016-02-23T07:46:47.140Z,652
2016-02-23T07:47:47.191Z,692
2016-02-23T07:48:47.177Z,648
2016-02-23T07:49:47.227Z,588
2016-02-23T07:50:47.213Z,536
2016-02-23T07:51:47.216Z,488
2016-02-23T07:52:47.235Z,460
2016-02-23T07:53:47.268Z,456
2016-02-23T07:54:47.271Z,460
2016-02-23T07:55:47.305Z,460
2016-02-23T07:56:47.308Z,432
2016-02-23T07:57:47.326Z,388
2016-02-23T07:58:47.345Z,348
2016-02-23T07:59:47.363Z,344
2016-02-23T08:00:47.365Z,380
2016-02-23T08:01:47.384Z,436
2016-02-23T08:02:47.418Z,512
2016-02-23T08:03:47.436Z,560
2016-02-23T08:04:47.438Z,604
2016-02-23T08:05:47.488Z,644
2016-02-23T08:06:47.444Z,684
2016-02-23T08:07:47.494Z,688
2016-02-23T08:08:47.497Z,664
2016-02-23T08:09:47.530Z,660
2016-02-23T08:10:47.564Z,676
2016-02-23T08:11:47.552Z,720
2016-02-23T08:12:47.585Z,756
2016-02-23T08:13:47.572Z,800
2016-02-23T08:14:47.605Z,828
2016-02-23T08:15:47.640Z,820
2016-02-23T08:16:47.627Z,796
2016-02-23T08:17:47.646Z,768
2016-02-23T08:18:47.680Z,772
2016-02-23T08:19:47.666Z,788
2016-02-23T08:20:47.701Z,800
2016-02-23T08:21:47.719Z,808
2016-02-23T08:22:47.721Z,820
2016-02-23T08:23:47.755Z,832
2016-02-23T08:24:47.758Z,852
2016-02-23T08:25:47.792Z,880
2016-02-23T08:26:47.795Z,888
2016-02-23T08:27:47.812Z,860
2016-02-23T08:28:47.832Z,820
2016-02-23T08:29:47.834Z,800
2016-02-23T08:30:47.915Z,800
2016-02-23T08:31:47.870Z,800
2016-02-23T08:32:47.890Z,792
2016-02-23T08:33:47.907Z,784
2016-02-23T08:34:47.925Z,780
2016-02-23T08:35:47.945Z,804
2016-02-23T08:36:47.947Z,848
2016-02-23T08:37:47.965Z,928
2016-02-23T08:38:48.014Z,1012
2016-02-23T08:39:48.002Z,1056
2016-02-23T08:40:48.051Z,1060
2016-02-23T08:41:48.039Z,1020
2016-02-23T08:42:48.056Z,984
2016-02-23T08:43:48.075Z,960
2016-02-23T08:44:48.078Z,944
2016-02-23T08:45:48.111Z,924
2016-02-23T08:46:48.114Z,924
2016-02-23T08:47:48.149Z,920
2016-02-23T08:48:48.151Z,944
2016-02-23T08:49:48.169Z,996
2016-02-23T08:50:48.202Z,1032
2016-02-23T08:51:48.205Z,1004
2016-02-23T08:52:48.224Z,1092
2016-02-23T08:53:48.227Z,1104
2016-02-23T08:54:48.260Z,1100
2016-02-23T08:55:48.279Z,1076
2016-02-23T08:56:48.298Z,1012
2016-02-23T08:57:48.300Z,1016
2016-02-23T08:58:48.334Z,1012
2016-02-23T08:59:48.337Z,1024
2016-02-23T09:00:48.354Z,1064
2016-02-23T09:01:48.219Z,1068
2016-02-23T09:02:48.378Z,1040
2016-02-23T09:03:48.397Z,992
2016-02-23T09:04:48.431Z,980
2016-02-23T09:05:48.438Z,980
2016-02-23T09:06:48.456Z,1004
2016-02-23T09:07:48.475Z,1024
2016-02-23T09:08:48.478Z,1044
2016-02-23T09:09:48.511Z,1112
2016-02-23T09:10:48.514Z,1136
2016-02-23T09:11:48.548Z,1136
2016-02-23T09:12:48.411Z,1100
2016-02-23T09:13:48.569Z,1064
2016-02-23T09:14:48.588Z,1056
2016-02-23T09:15:48.606Z,1044
2016-02-23T09:16:48.608Z,1020
2016-02-23T09:17:48.643Z,1004
2016-02-23T09:18:48.646Z,1008
2016-02-23T09:19:48.663Z,1024
2016-02-23T09:20:48.682Z,1040
2016-02-23T09:21:48.747Z,1060
2016-02-23T09:22:48.718Z,1064
2016-02-23T09:23:48.737Z,1040
2016-02-23T09:24:48.755Z,1044
2016-02-23T09:25:48.633Z,1048
2016-02-23T09:26:48.792Z,1020
2016-02-23T09:27:48.810Z,992
2016-02-23T09:28:48.651Z,1000
2016-02-23T09:29:48.844Z,1032
2016-02-23T09:30:48.834Z,1068
2016-02-23T09:31:48.668Z,1084
2016-02-23T09:32:48.845Z,1092
2016-02-23T09:33:48.839Z,1100
2016-02-23T09:34:48.853Z,1128
2016-02-23T09:35:48.867Z,1152
2016-02-23T09:36:48.879Z,1156
2016-02-23T09:37:48.925Z,1160
2016-02-23T09:38:48.893Z,1148
2016-02-23T09:39:48.941Z,1148
2016-02-23T09:40:48.926Z,1124
2016-02-23T09:41:48.942Z,1112
2016-02-23T09:42:48.975Z,1104
2016-02-23T09:43:48.992Z,1116
2016-02-23T09:44:48.994Z,1112
2016-02-23T09:45:49.059Z,1108
2016-02-23T09:46:49.030Z,1112
2016-02-23T09:47:49.047Z,1116
2016-02-23T09:48:49.065Z,1144
2016-02-23T09:49:49.068Z,1160
2016-02-23T09:50:49.101Z,1164
2016-02-23T09:51:49.119Z,1200
2016-02-23T09:52:49.122Z,1264
2016-02-23T09:53:49.155Z,1296
2016-02-23T09:54:49.174Z,1224
2016-02-23T09:55:49.177Z,1264
2016-02-23T09:56:49.194Z,1336
2016-02-23T09:57:49.229Z,1336
2016-02-23T09:58:49.263Z,1324
2016-02-23T09:59:49.281Z,1432
2016-02-23T10:00:49.268Z,1416
2016-02-23T10:01:49.287Z,1460
2016-02-23T10:02:49.305Z,1468
2016-02-23T10:03:49.917Z,1500
2016-02-23T10:04:49.326Z,1436
2016-02-23T10:05:49.360Z,1508
2016-02-23T10:06:49.362Z,1564
2016-02-23T10:07:49.396Z,1536
2016-02-23T10:08:49.415Z,1520
2016-02-23T10:09:49.401Z,1552
2016-02-23T10:10:49.420Z,1584
2016-02-23T10:11:49.454Z,1648
2016-02-23T10:12:49.487Z,1560
2016-02-23T10:13:49.506Z,1520
2016-02-23T10:14:49.509Z,1432
2016-02-23T10:15:49.543Z,1408
2016-02-23T10:16:49.545Z,1464
2016-02-23T10:17:49.564Z,1480
2016-02-23T10:18:49.567Z,1508
2016-02-23T10:19:49.585Z,1448
2016-02-23T10:20:49.619Z,1412
2016-02-23T10:21:49.636Z,1348
2016-02-23T10:22:49.656Z,1220
2016-02-23T10:23:49.658Z,976
2016-02-23T10:24:49.692Z,1036
2016-02-23T10:25:49.694Z,972
2016-02-23T10:26:49.744Z,908
2016-02-23T10:27:49.732Z,924
2016-02-23T10:28:49.749Z,924
2016-02-23T10:29:49.768Z,1056
2016-02-23T10:30:49.786Z,1084
2016-02-23T10:31:49.804Z,1044
2016-02-23T10:32:49.823Z,1024
2016-02-23T10:33:49.951Z,1156
2016-02-23T10:34:49.844Z,1276
2016-02-23T10:35:49.862Z,1224
2016-02-23T10:36:49.912Z,1224
2016-02-23T10:37:49.915Z,1140
2016-02-23T10:38:49.918Z,1072
2016-02-23T10:39:49.935Z,1008
2016-02-23T10:40:49.954Z,928
2016-02-23T10:41:49.973Z,864
2016-02-23T10:42:50.006Z,868
2016-02-23T10:43:50.009Z,868
2016-02-23T10:44:50.042Z,880
2016-02-23T10:45:50.045Z,960
2016-02-23T10:46:50.064Z,876
2016-02-23T10:47:50.114Z,792
2016-02-23T10:48:50.100Z,900
2016-02-23T10:49:50.150Z,908
2016-02-23T10:50:50.137Z,1024
2016-02-23T10:51:50.155Z,996
2016-02-23T10:52:50.174Z,800
2016-02-23T10:53:50.192Z,1144
2016-02-23T10:54:50.241Z,868
2016-02-23T10:55:50.228Z,744
2016-02-23T10:56:50.247Z,740
2016-02-23T10:57:50.266Z,768
2016-02-23T10:58:50.284Z,1092
2016-02-23T10:59:50.318Z,1204
2016-02-23T11:00:50.304Z,1240
2016-02-23T11:01:50.339Z,1444
2016-02-23T11:02:50.372Z,1424
2016-02-23T11:03:50.374Z,1356
2016-02-23T11:04:50.377Z,1388
2016-02-23T11:05:50.396Z,1460
2016-02-23T11:06:50.430Z,1536
2016-02-23T11:07:50.433Z,1552
2016-02-23T11:08:50.467Z,1548
2016-02-23T11:09:50.470Z,1548
2016-02-23T11:10:50.488Z,1504
2016-02-23T11:11:50.522Z,1664
2016-02-23T11:12:50.524Z,1980
2016-02-23T11:13:50.574Z,1496
2016-02-23T11:14:50.561Z,1044
2016-02-23T11:15:50.579Z,924
2016-02-23T11:16:50.597Z,1396
2016-02-23T11:17:50.616Z,1740
2016-02-23T11:18:50.634Z,1260
2016-02-23T11:19:50.653Z,1468
2016-02-23T11:20:50.686Z,1320
2016-02-23T11:21:50.689Z,1596
2016-02-23T11:22:50.692Z,1676
2016-02-23T11:23:50.725Z,1028
2016-02-23T11:24:50.728Z,764
2016-02-23T11:25:50.763Z,1168
2016-02-23T11:26:50.766Z,1216
2016-02-23T11:27:50.814Z,960
2016-02-23T11:28:50.817Z,784
2016-02-23T11:29:50.852Z,604
2016-02-23T11:30:50.854Z,844
2016-02-23T11:31:50.905Z,632
2016-02-23T11:32:50.907Z,644
2016-02-23T11:33:50.941Z,828
2016-02-23T11:34:50.927Z,696
2016-02-23T11:35:50.977Z,548
2016-02-23T11:36:50.963Z,512
2016-02-23T11:37:50.983Z,504
2016-02-23T11:38:51.001Z,600
2016-02-23T11:39:51.035Z,712
2016-02-23T11:40:51.068Z,736
2016-02-23T11:41:51.040Z,832
2016-02-23T11:42:51.058Z,888
2016-02-23T11:43:51.092Z,984
2016-02-23T11:44:51.111Z,824
2016-02-23T11:45:51.113Z,772
2016-02-23T11:46:51.148Z,804
2016-02-23T11:47:51.165Z,928
2016-02-23T11:48:51.168Z,1348
2016-02-23T11:49:51.186Z,2056
2016-02-23T11:50:51.205Z,1524
2016-02-23T11:51:51.222Z,1168
2016-02-23T11:52:51.257Z,1012
2016-02-23T11:53:51.340Z,1168
2016-02-23T11:54:51.311Z,1668
2016-02-23T11:55:51.301Z,2120
2016-02-23T11:56:52.764Z,2048
2016-02-23T11:57:51.345Z,1628
2016-02-23T11:58:51.395Z,1216
2016-02-23T11:59:51.397Z,1260
2016-02-23T12:00:57.712Z,1564
2016-02-23T12:01:51.418Z,1332
2016-02-23T12:02:51.421Z,992
2016-02-23T12:03:51.454Z,812
2016-02-23T12:04:51.473Z,988
2016-02-23T12:05:51.507Z,1348
2016-02-23T12:06:51.762Z,1504
2016-02-23T12:07:51.530Z,1508
2016-02-23T12:08:51.533Z,1640
2016-02-23T12:09:51.550Z,1776
2016-02-23T12:10:51.585Z,1852
2016-02-23T12:11:51.587Z,1812
2016-02-23T12:12:51.605Z,1636
2016-02-23T12:13:51.640Z,1568
2016-02-23T12:14:51.657Z,1436
2016-02-23T12:15:51.660Z,1352
2016-02-23T12:16:51.679Z,1400
2016-02-23T12:17:51.696Z,1568
2016-02-23T12:18:51.247Z,1756
2016-02-23T12:19:51.766Z,1928
2016-02-23T12:20:51.752Z,1948
2016-02-23T12:21:51.771Z,1692
2016-02-23T12:22:51.804Z,1448
2016-02-23T12:23:51.807Z,1280
2016-02-23T12:24:51.840Z,1288
2016-02-23T12:25:51.876Z,1104
2016-02-23T12:26:51.879Z,996
2016-02-23T12:27:51.912Z,840
2016-02-23T12:28:51.946Z,740
2016-02-23T12:29:51.948Z,752
2016-02-23T12:30:51.951Z,748
2016-02-23T12:31:51.985Z,704
2016-02-23T12:32:51.988Z,688
2016-02-23T12:33:52.069Z,728
2016-02-23T12:34:52.056Z,828
2016-02-23T12:35:52.074Z,892
2016-02-23T12:36:52.077Z,840
2016-02-23T12:37:52.110Z,936
2016-02-23T12:38:52.114Z,1020
2016-02-23T12:39:52.148Z,1084
2016-02-23T12:40:52.134Z,1052
2016-02-23T12:41:52.169Z,928
2016-02-23T12:42:52.186Z,768
2016-02-23T12:43:52.189Z,688
2016-02-23T12:44:52.224Z,632
2016-02-23T12:45:52.226Z,644
2016-02-23T12:46:52.259Z,640
2016-02-23T12:47:52.263Z,592
2016-02-23T12:48:52.281Z,592
2016-02-23T12:49:52.299Z,612
2016-02-23T12:50:52.365Z,636
2016-02-23T12:51:52.335Z,724
2016-02-23T12:52:52.371Z,956
2016-02-23T12:53:52.388Z,1268
2016-02-23T12:54:52.844Z,1496
2016-02-23T12:55:52.424Z,1488
2016-02-23T12:56:52.443Z,1444
2016-02-23T12:57:52.446Z,1488
2016-02-23T12:58:52.479Z,1548
2016-02-23T12:59:52.513Z,1480
2016-02-23T13:00:52.517Z,1296
2016-02-23T13:01:52.535Z,1140
2016-02-23T13:02:52.537Z,1084
2016-02-23T13:03:52.587Z,1004
2016-02-23T13:04:52.433Z,872
2016-02-23T13:05:52.623Z,756
2016-02-23T13:06:52.625Z,656
2016-02-23T13:07:52.831Z,620
2016-02-23T13:08:52.663Z,716
2016-02-23T13:09:52.681Z,792
2016-02-23T13:10:52.731Z,660
2016-02-23T13:11:52.717Z,500
2016-02-23T13:12:52.735Z,456
2016-02-23T13:13:52.770Z,604
2016-02-23T13:14:52.773Z,912
2016-02-23T13:15:52.791Z,1124
2016-02-23T13:16:52.825Z,1272
2016-02-23T13:17:52.827Z,1364
2016-02-23T13:18:52.846Z,1376
2016-02-23T13:19:52.863Z,1348
2016-02-23T13:20:52.741Z,1260
2016-02-23T13:21:52.917Z,1176
2016-02-23T13:22:52.935Z,1156
2016-02-23T13:23:52.954Z,1100
2016-02-23T13:24:52.956Z,1024
2016-02-23T13:25:52.990Z,968
2016-02-23T13:26:53.007Z,912
2016-02-23T13:27:53.026Z,932
2016-02-23T13:28:53.044Z,1032
2016-02-23T13:29:53.156Z,1056
2016-02-23T13:30:53.098Z,976
2016-02-23T13:31:53.100Z,872
2016-02-23T13:32:53.134Z,752
2016-02-23T13:33:53.136Z,688
2016-02-23T13:34:53.170Z,700
2016-02-23T13:35:53.204Z,732
2016-02-23T13:36:53.192Z,768
2016-02-23T13:37:53.226Z,812
2016-02-23T13:38:53.775Z,868
2016-02-23T13:39:53.261Z,972
2016-02-23T13:40:53.295Z,1064
2016-02-23T13:41:53.344Z,1156
2016-02-23T13:42:53.176Z,1204
2016-02-23T13:43:53.319Z,1232
2016-02-23T13:44:53.369Z,1280
2016-02-23T13:45:53.372Z,1376
2016-02-23T13:46:53.405Z,1496
2016-02-23T13:47:53.408Z,1536
2016-02-23T13:48:53.426Z,1536
2016-02-23T13:49:53.444Z,1524
2016-02-23T13:50:53.480Z,1484
2016-02-23T13:51:53.482Z,1500
2016-02-23T13:52:53.516Z,1564
2016-02-23T13:53:53.502Z,1576
2016-02-23T13:54:53.537Z,1492
2016-02-23T13:55:53.555Z,1392
2016-02-23T13:56:53.604Z,1288
2016-02-23T13:57:53.591Z,1196
2016-02-23T13:58:53.626Z,1212
2016-02-23T13:59:53.628Z,1284
2016-02-23T14:00:53.662Z,1360
2016-02-23T14:01:53.711Z,1336
2016-02-23T14:02:53.683Z,1228
2016-02-23T14:03:53.732Z,1124
2016-02-23T14:04:53.720Z,1012